»·PEaware :: WAT388 KPSP-KSAN

WAT388 :: KPSP-KSAN

FLIGHT INFORMATION

Flight Status: Arrived
Operator:
Walker Air Transport
More flights by this operator :: More flights under this callsign
Pilot: Jacob A. (30091)
Aircraft: MOONEY M-20 201 202 205 220 ATS MSE
(M20P)
More flights by this aircraft type
Origin: KPSP Palm Springs Intl
United States
Destination: KSAN San Diego Intl-Lindbergh
United States
More flights between these airports :: More routes between these airports
Route: +DCT
File this flight plan on PilotEdge
Remarks:
Altitude:
(Current/Filed)
12,500ft
Speed:
(Current/Filed)
165kts
Departed: 23-Oct-20 01:13 PM
Arrived: 23-Oct-20 01:50 PM
Distance/Time
Traveled:
74nm/0:37
Distance/Time
To Go:
Arrived

Flight Plot

Page will automatically refresh every two minutes.

Flight plan parsing failed; only flown route is shown


Map Options




Map Legend


Flown Route
Filed Route
Departure Airport
Arrival Airport
Navaid (VOR, NDB)
Fix

Horizontal Profiles

Position Reports

Time Latitude Longitude Heading Altitude Ground
Speed
23-Oct-20 13:01 33.820716 -116.494533 324 394ft 0kts
23-Oct-20 13:02 33.820716 -116.494533 324 394ft 0kts
23-Oct-20 13:03 33.820716 -116.494533 324 394ft 0kts
23-Oct-20 13:04 33.820716 -116.494533 324 394ft 0kts
23-Oct-20 13:05 33.820639 -116.494466 324 393ft 0kts
23-Oct-20 13:06 33.820639 -116.494466 324 393ft 0kts
23-Oct-20 13:07 33.820418 -116.495030 260 394ft 0kts
23-Oct-20 13:08 33.820404 -116.495096 255 394ft 3kts
23-Oct-20 13:09 33.819166 -116.497162 228 397ft 0kts
23-Oct-20 13:10 33.819166 -116.497162 228 397ft 0kts
23-Oct-20 13:11 33.819095 -116.497267 235 397ft 7kts
23-Oct-20 13:12 33.831558 -116.509194 322 807ft 111kts
23-Oct-20 13:13 33.849693 -116.505201 129 2432ft 125kts
23-Oct-20 13:14 33.821168 -116.469710 140 3298ft 148kts
23-Oct-20 13:15 33.786569 -116.441543 171 4103ft 149kts
23-Oct-20 13:16 33.748458 -116.457035 209 4722ft 152kts
23-Oct-20 13:17 33.710836 -116.477855 196 5635ft 153kts
23-Oct-20 13:18 33.669331 -116.491316 196 6766ft 151kts
23-Oct-20 13:19 33.629602 -116.504080 196 7981ft 145kts
23-Oct-20 13:20 33.591537 -116.516237 196 9149ft 136kts
23-Oct-20 13:21 33.556581 -116.527247 196 10314ft 125kts
23-Oct-20 13:22 33.523727 -116.537502 196 11292ft 118kts
23-Oct-20 13:23 33.490164 -116.548025 196 11982ft 128kts
23-Oct-20 13:24 33.455833 -116.558798 196 12482ft 133kts
23-Oct-20 13:25 33.417685 -116.570872 196 12504ft 154kts
23-Oct-20 13:26 33.371957 -116.585574 196 12500ft 178kts
23-Oct-20 13:27 33.323009 -116.601456 196 12355ft 190kts
23-Oct-20 13:28 33.269949 -116.614383 192 11866ft 197kts
23-Oct-20 13:29 33.215153 -116.617254 179 11361ft 198kts
23-Oct-20 13:30 33.160158 -116.615850 179 10842ft 196kts
23-Oct-20 13:31 33.105993 -116.614622 180 10238ft 186kts
23-Oct-20 13:32 33.056299 -116.621256 194 9248ft 178kts
23-Oct-20 13:33 33.008199 -116.634679 194 8255ft 178kts
23-Oct-20 13:34 32.961891 -116.647516 194 7765ft 167kts
23-Oct-20 13:35 32.916373 -116.660036 194 7278ft 169kts
23-Oct-20 13:36 32.872683 -116.679718 209 6855ft 166kts
23-Oct-20 13:37 32.835104 -116.709839 218 6661ft 162kts
23-Oct-20 13:38 32.799455 -116.742415 218 6505ft 159kts
23-Oct-20 13:39 32.765612 -116.775518 226 6503ft 156kts
23-Oct-20 13:40 32.742536 -116.819292 240 6331ft 163kts
23-Oct-20 13:41 32.719641 -116.867187 242 5828ft 168kts
23-Oct-20 13:42 32.697687 -116.916297 242 5294ft 170kts
23-Oct-20 13:43 32.686766 -116.971569 264 4495ft 175kts
23-Oct-20 13:45 32.694332 -117.028296 288 3687ft 175kts
23-Oct-20 13:46 32.705253 -117.076529 286 2703ft 131kts
23-Oct-20 13:47 32.714433 -117.111595 284 2418ft 108kts
23-Oct-20 13:48 32.723327 -117.148078 284 1512ft 113kts
23-Oct-20 13:49 32.731214 -117.180058 285 77ft 84kts
23-Oct-20 13:50 32.734700 -117.190740 27 13ft 0kts
23-Oct-20 13:51 32.734244 -117.187724 104 12ft 25kts
23-Oct-20 13:52 32.732561 -117.180825 106 14ft 20kts
23-Oct-20 13:53 32.733927 -117.178980 53 14ft 0kts
23-Oct-20 13:54 32.733927 -117.178980 53 14ft 0kts

Navigation Log

Ident Type
Flight plan parsing failed, navigation log unavailable